Accueil
METAR-TAF:

METAR-TAF

Aéroports :

Brevig Mission, Alaska, États-Unis

latitude: 65-19-53N, longitude: 166-27-57W, altitude: 11 m

Observation

Le bulletin a été fait il y a 43 minutes, à 22:56 UTC
Vent 8 kt de sud-ouest
Température -12°C
Humidité 85%
Pression 1007 hPa
Visibilité: 14.5 km
Nuages épars à une hauteur de 1300 ft
Ciel couvert à une hauteur de 2300 ft
neige faible

METAR: PFKT 222256Z AUTO 22008KT 9SM -SN SCT013 OVC023 M12/M14 A2975 RMK AO2 SLP073 P0000 T11221144 FZRANO

Heure: 14:39 (23:39 UTC)


TAF: absent

Observations et prévisions météorologiques de plus de 4000 aéroports (messages METAR et TAF).

Les stations disponibles sont représentées par des disques jaunes et rouges sur la carte.

Passer la souris dessus pour voir le nom de la station.

Cliquer dessus pour voir les observations et prévisions météorologiques.

Pour changer de carte: cliquez sur les boutons verts avec une croix noire pour zoomer, sur le bouton vert avec un tiret pour effectuer un zoom arrière, ou sur les flèches vertes pour les cartes adjacentes.


METAR-TAF: